Time;durP1;ratioP1;P1;durP2;ratioP2;P2;SDS_P1;SDS_P2;PMS_P1;PMS_P2;Temp;Humidity;BMP_temperature;BMP_pressure;BME280_temperature;BME280_humidity;BME280_pressure;Samples;Min_cycle;Max_cycle;Signal;HPM_P1;HPM_P2
2024/01/31 00:01:17;;;;;;;24.37;11.50;;;2.90;99.90;;;;;;5051730;28;20199;-80
2024/01/31 00:04:05;;;;;;;25.30;11.60;;;2.90;99.90;;;;;;5051676;28;20201;-80
2024/01/31 00:06:52;;;;;;;27.60;11.50;;;2.90;99.90;;;;;;5032452;28;20236;-80
2024/01/31 00:09:40;;;;;;;24.80;11.00;;;2.90;99.90;;;;;;5033484;28;20203;-80
2024/01/31 00:12:27;;;;;;;24.07;10.90;;;2.90;99.90;;;;;;5017532;28;20223;-80
2024/01/31 00:15:16;;;;;;;28.23;12.07;;;2.90;99.90;;;;;;5019766;28;20249;-79
2024/01/31 00:18:04;;;;;;;26.17;10.63;;;2.90;99.90;;;;;;5017824;28;20197;-80
2024/01/31 00:20:51;;;;;;;22.57;10.97;;;2.90;99.90;;;;;;5032364;28;20191;-80
2024/01/31 00:23:39;;;;;;;25.90;10.80;;;2.80;99.90;;;;;;5031706;28;20203;-79
2024/01/31 00:26:26;;;;;;;22.03;10.50;;;2.90;99.90;;;;;;5016974;28;20214;-80
2024/01/31 00:29:14;;;;;;;22.30;10.77;;;2.90;99.90;;;;;;5032313;28;20191;-80
2024/01/31 00:32:01;;;;;;;23.87;11.50;;;2.90;99.90;;;;;;5031254;28;20201;-80
2024/01/31 00:34:49;;;;;;;23.00;10.43;;;2.90;99.90;;;;;;5031987;28;20666;-81
2024/01/31 00:37:36;;;;;;;23.57;11.23;;;2.90;99.90;;;;;;5032059;28;20207;-80
2024/01/31 00:40:24;;;;;;;25.33;10.70;;;2.80;99.90;;;;;;5032118;28;20202;-80
2024/01/31 00:43:11;;;;;;;24.23;10.90;;;2.80;99.90;;;;;;5032286;28;20219;-80
2024/01/31 00:46:02;;;;;;;24.80;11.10;;;2.80;99.90;;;;;;5032234;28;20615;-80
2024/01/31 00:48:49;;;;;;;23.10;10.43;;;2.80;99.90;;;;;;5032571;28;20235;-80
2024/01/31 00:51:37;;;;;;;21.40;10.83;;;2.70;99.90;;;;;;5030884;28;20198;-80
2024/01/31 00:54:25;;;;;;;19.70;10.30;;;2.80;99.90;;;;;;5032521;28;20243;-80
2024/01/31 00:57:32;;;;;;;23.43;10.90;;;2.70;99.90;;;;;;4990132;28;20219;-80
2024/01/31 01:00:23;;;;;;;23.90;10.23;;;2.70;99.90;;;;;;4990743;28;20658;-80
2024/01/31 01:03:11;;;;;;;19.67;10.40;;;2.60;99.90;;;;;;4990780;28;20209;-80
2024/01/31 01:05:58;;;;;;;23.20;10.70;;;2.60;99.90;;;;;;5016696;28;20221;-80
2024/01/31 01:08:46;;;;;;;21.07;10.40;;;2.50;99.90;;;;;;5015620;28;20238;-81
2024/01/31 01:11:34;;;;;;;23.43;10.60;;;2.50;99.90;;;;;;5028738;28;20226;-80
2024/01/31 01:14:21;;;;;;;26.40;10.47;;;2.40;99.90;;;;;;5030322;28;20758;-80
2024/01/31 01:17:09;;;;;;;22.30;10.33;;;2.50;99.90;;;;;;5057738;28;20221;-80
2024/01/31 01:19:56;;;;;;;22.83;10.17;;;2.40;99.90;;;;;;5061076;28;20186;-80
2024/01/31 01:22:45;;;;;;;22.53;10.20;;;2.40;99.90;;;;;;5060325;28;20277;-80
2024/01/31 01:25:33;;;;;;;22.47;11.07;;;2.40;99.90;;;;;;5075601;28;20672;-80
2024/01/31 01:28:20;;;;;;;20.57;10.20;;;2.50;99.90;;;;;;5059669;28;20439;-80
2024/01/31 01:31:08;;;;;;;22.80;10.63;;;2.40;99.90;;;;;;5074408;28;20194;-80
2024/01/31 01:33:55;;;;;;;21.53;10.07;;;2.40;99.90;;;;;;5074501;28;20205;-81
2024/01/31 01:36:46;;;;;;;20.73;10.20;;;2.40;99.90;;;;;;5073668;28;20212;-80
2024/01/31 01:39:34;;;;;;;24.17;10.47;;;2.30;99.90;;;;;;5074541;28;20288;-80
2024/01/31 01:42:22;;;;;;;21.80;10.30;;;2.30;99.90;;;;;;5074897;28;20232;-80
2024/01/31 01:45:10;;;;;;;21.57;9.93;;;2.30;99.90;;;;;;5060577;28;20598;-80
2024/01/31 01:47:57;;;;;;;21.73;10.00;;;2.30;99.90;;;;;;5059988;28;20193;-80
2024/01/31 01:50:45;;;;;;;18.73;9.57;;;2.30;99.90;;;;;;5074631;28;20197;-80
2024/01/31 01:53:36;;;;;;;22.23;9.60;;;2.30;99.90;;;;;;5075030;28;20189;-80
2024/01/31 01:56:24;;;;;;;24.03;9.23;;;2.30;99.90;;;;;;5074362;28;20645;-80
2024/01/31 01:59:12;;;;;;;24.47;10.23;;;2.30;99.90;;;;;;5074534;28;20688;-79
2024/01/31 02:02:01;;;;;;;20.30;9.83;;;2.30;99.90;;;;;;5073872;28;20240;-80
2024/01/31 02:04:49;;;;;;;22.20;10.13;;;2.30;99.90;;;;;;5073930;28;20226;-80
2024/01/31 02:07:39;;;;;;;22.37;10.20;;;2.30;99.90;;;;;;5074307;28;20199;-80
2024/01/31 02:10:27;;;;;;;21.10;10.03;;;2.30;99.90;;;;;;5058807;28;20198;-80
2024/01/31 02:13:14;;;;;;;20.33;10.10;;;2.30;99.90;;;;;;5075245;28;20334;-80
2024/01/31 02:16:02;;;;;;;21.77;9.63;;;2.30;99.90;;;;;;5073493;28;20608;-80
2024/01/31 02:18:49;;;;;;;25.17;10.47;;;2.20;99.90;;;;;;5074664;28;20702;-80
2024/01/31 02:21:41;;;;;;;20.43;9.87;;;2.20;99.90;;;;;;5073566;28;20654;-80
2024/01/31 02:24:28;;;;;;;21.47;10.03;;;2.20;99.90;;;;;;5058562;28;20222;-80
2024/01/31 02:27:15;;;;;;;21.33;9.90;;;2.30;99.90;;;;;;5060351;28;20684;-80
2024/01/31 02:30:03;;;;;;;20.00;10.07;;;2.30;99.90;;;;;;5059742;28;20288;-80
2024/01/31 02:32:54;;;;;;;21.93;9.93;;;2.30;99.90;;;;;;5074356;28;20198;-80
2024/01/31 02:35:41;;;;;;;21.50;9.47;;;2.30;99.90;;;;;;5073031;28;20318;-80
2024/01/31 02:38:29;;;;;;;22.00;10.40;;;2.30;99.90;;;;;;5058523;28;20329;-80
2024/01/31 02:41:16;;;;;;;20.97;10.17;;;2.20;99.90;;;;;;5060142;28;20277;-80
2024/01/31 02:44:04;;;;;;;19.57;9.53;;;2.10;99.90;;;;;;5073137;28;20209;-80
2024/01/31 02:46:52;;;;;;;23.43;9.60;;;2.20;99.90;;;;;;5072393;28;20230;-80
2024/01/31 02:49:39;;;;;;;20.40;10.03;;;2.10;99.90;;;;;;5058779;28;20193;-80
2024/01/31 02:52:27;;;;;;;20.17;9.80;;;2.10;99.90;;;;;;5058733;28;20193;-80
2024/01/31 02:55:15;;;;;;;22.03;10.40;;;2.10;99.90;;;;;;5072360;28;20252;-80
2024/01/31 02:58:03;;;;;;;21.70;10.13;;;2.20;99.90;;;;;;5059083;28;20307;-80
2024/01/31 03:00:50;;;;;;;20.43;9.70;;;2.20;99.90;;;;;;5072695;28;20573;-80
2024/01/31 03:03:38;;;;;;;19.40;9.53;;;2.20;99.90;;;;;;5073230;28;20654;-80
2024/01/31 03:06:25;;;;;;;21.93;10.40;;;2.20;99.90;;;;;;5072726;28;20597;-80
2024/01/31 03:09:12;;;;;;;21.83;9.97;;;2.20;99.90;;;;;;5072498;28;20194;-80
2024/01/31 03:12:00;;;;;;;21.37;9.60;;;2.20;99.90;;;;;;5058206;28;20301;-80
2024/01/31 03:14:47;;;;;;;21.13;10.37;;;2.20;99.90;;;;;;5073499;28;20643;-81
2024/01/31 03:17:35;;;;;;;23.70;10.97;;;2.10;99.90;;;;;;5058753;28;20214;-80
2024/01/31 03:20:24;;;;;;;23.97;10.93;;;2.20;99.90;;;;;;5071814;28;20281;-80
2024/01/31 03:23:12;;;;;;;20.93;10.00;;;2.20;99.90;;;;;;5058057;28;20194;-80
2024/01/31 03:25:59;;;;;;;19.73;10.23;;;2.10;99.90;;;;;;5073997;28;20193;-80
2024/01/31 03:28:47;;;;;;;18.83;10.07;;;2.20;99.90;;;;;;5072192;28;20222;-80
2024/01/31 03:31:35;;;;;;;21.53;10.27;;;2.20;99.90;;;;;;5073922;28;20196;-80
2024/01/31 03:34:23;;;;;;;22.97;10.50;;;2.20;99.90;;;;;;5072109;28;20198;-79
2024/01/31 03:37:10;;;;;;;22.57;10.70;;;2.20;99.90;;;;;;5058446;28;20302;-79
2024/01/31 03:39:58;;;;;;;21.47;10.60;;;2.30;99.90;;;;;;5057995;28;20197;-79
2024/01/31 03:42:45;;;;;;;23.83;10.43;;;2.30;99.90;;;;;;5073493;28;20260;-79
2024/01/31 03:45:33;;;;;;;22.67;10.17;;;2.30;99.90;;;;;;5058458;28;20198;-80
2024/01/31 03:48:20;;;;;;;20.40;10.07;;;2.30;99.90;;;;;;5071280;28;20191;-80
2024/01/31 03:51:18;;;;;;;20.07;10.67;;;2.30;99.90;;;;;;5072013;28;20259;-80
2024/01/31 03:54:06;;;;;;;23.93;10.27;;;2.30;99.90;;;;;;5058774;28;20587;-80
2024/01/31 03:56:53;;;;;;;22.70;10.43;;;2.30;99.90;;;;;;5057537;28;20225;-80
2024/01/31 03:59:41;;;;;;;20.20;10.00;;;2.40;99.90;;;;;;5057563;28;20191;-80
2024/01/31 04:02:28;;;;;;;24.10;10.17;;;2.40;99.90;;;;;;5057545;28;20650;-80
2024/01/31 04:05:16;;;;;;;22.50;10.60;;;2.50;99.90;;;;;;5070985;28;20314;-80
2024/01/31 04:08:04;;;;;;;22.20;10.43;;;2.50;99.90;;;;;;5057634;28;20661;-80
2024/01/31 04:10:52;;;;;;;19.77;10.50;;;2.50;99.90;;;;;;5072252;28;20190;-80
2024/01/31 04:13:43;;;;;;;20.77;10.53;;;2.50;99.90;;;;;;5071081;28;20190;-80
2024/01/31 04:16:30;;;;;;;21.87;10.47;;;2.60;99.90;;;;;;5072770;28;20595;-80
2024/01/31 04:19:18;;;;;;;20.77;10.00;;;2.70;99.90;;;;;;5071154;28;20251;-80
2024/01/31 04:22:06;;;;;;;18.53;9.50;;;2.60;99.90;;;;;;5071024;28;20190;-80
2024/01/31 04:24:53;;;;;;;23.40;10.80;;;2.60;99.90;;;;;;5072144;28;20201;-80
2024/01/31 04:27:41;;;;;;;18.00;10.17;;;2.60;99.90;;;;;;5071445;28;20211;-80
2024/01/31 04:30:28;;;;;;;22.23;10.53;;;2.60;99.90;;;;;;5057932;28;20727;-80
2024/01/31 04:33:20;;;;;;;23.17;10.27;;;2.60;99.90;;;;;;5071510;28;20202;-80
2024/01/31 04:36:08;;;;;;;22.03;10.57;;;2.60;99.90;;;;;;5071401;28;20239;-80
2024/01/31 04:38:56;;;;;;;24.60;11.47;;;2.60;99.90;;;;;;5057379;28;20305;-80
2024/01/31 04:41:43;;;;;;;23.37;10.70;;;2.60;99.90;;;;;;5057165;28;20213;-81
2024/01/31 04:44:30;;;;;;;23.73;11.80;;;2.60;99.90;;;;;;5056712;28;20194;-81
2024/01/31 04:47:18;;;;;;;22.23;10.67;;;2.60;99.90;;;;;;5071385;28;20187;-81
2024/01/31 04:50:06;;;;;;;24.87;11.30;;;2.60;99.90;;;;;;5070696;28;20194;-81
2024/01/31 04:52:54;;;;;;;22.77;11.30;;;2.60;99.90;;;;;;5074761;28;20696;-80
2024/01/31 04:55:41;;;;;;;19.50;10.20;;;2.60;99.90;;;;;;5075113;28;20192;-80
2024/01/31 04:58:29;;;;;;;20.87;10.93;;;2.50;99.90;;;;;;5076155;28;20280;-80
2024/01/31 05:01:16;;;;;;;25.63;11.67;;;2.50;99.90;;;;;;5075626;28;20201;-80
2024/01/31 05:04:04;;;;;;;22.03;11.03;;;2.50;99.90;;;;;;5076802;28;20856;-80
2024/01/31 05:06:51;;;;;;;21.57;10.83;;;2.50;99.90;;;;;;5061377;28;20197;-80
2024/01/31 05:09:38;;;;;;;24.03;10.83;;;2.60;99.90;;;;;;5074254;28;20607;-80
2024/01/31 05:12:26;;;;;;;21.87;11.10;;;2.60;99.90;;;;;;5074244;28;20213;-80
2024/01/31 05:15:13;;;;;;;22.47;10.63;;;2.70;99.90;;;;;;5061242;28;20293;-80
2024/01/31 05:18:01;;;;;;;23.17;11.07;;;2.70;99.90;;;;;;5075155;28;20694;-80
2024/01/31 05:20:48;;;;;;;23.47;11.93;;;2.70;99.90;;;;;;5073948;28;20685;-80
2024/01/31 05:23:37;;;;;;;21.50;10.57;;;2.70;99.90;;;;;;5060384;28;20620;-80
2024/01/31 05:26:25;;;;;;;24.83;11.20;;;2.80;99.90;;;;;;5074346;28;20222;-80
2024/01/31 05:29:13;;;;;;;23.77;12.00;;;2.80;99.90;;;;;;5075035;28;20195;-80
2024/01/31 05:32:00;;;;;;;22.77;10.97;;;2.80;99.90;;;;;;5074333;28;20643;-80
2024/01/31 05:34:48;;;;;;;21.97;10.93;;;2.90;99.90;;;;;;5074325;28;20592;-80
2024/01/31 05:37:36;;;;;;;24.80;11.80;;;3.00;99.90;;;;;;5074903;28;20306;-80
2024/01/31 05:40:26;;;;;;;21.87;10.90;;;3.10;99.90;;;;;;5073515;28;20194;-80
2024/01/31 05:43:14;;;;;;;25.57;11.53;;;3.00;99.90;;;;;;5076142;28;20596;-80
2024/01/31 05:46:01;;;;;;;22.43;11.53;;;3.10;99.90;;;;;;5074098;28;20186;-80
2024/01/31 05:48:49;;;;;;;28.40;12.43;;;3.10;99.90;;;;;;5059332;28;20653;-80
2024/01/31 05:51:36;;;;;;;23.20;11.63;;;3.10;99.90;;;;;;5074329;28;20225;-80
2024/01/31 05:54:24;;;;;;;22.80;11.33;;;3.10;99.90;;;;;;5059310;28;20206;-80
2024/01/31 05:57:11;;;;;;;23.43;11.70;;;3.20;99.90;;;;;;5059244;28;20277;-80
2024/01/31 05:59:58;;;;;;;23.67;12.10;;;3.30;99.90;;;;;;5073881;28;20658;-80
2024/01/31 06:02:46;;;;;;;24.40;11.60;;;3.30;99.90;;;;;;5073420;28;20190;-80
2024/01/31 06:05:38;;;;;;;25.13;12.47;;;3.40;99.90;;;;;;5073685;28;20229;-80
2024/01/31 06:08:26;;;;;;;24.33;11.87;;;3.40;99.90;;;;;;5074052;28;20198;-80
2024/01/31 06:11:13;;;;;;;28.03;12.10;;;3.40;99.90;;;;;;5059432;28;20573;-80
2024/01/31 06:14:01;;;;;;;28.67;12.77;;;3.50;99.90;;;;;;5058923;28;20206;-80
2024/01/31 06:16:48;;;;;;;28.43;13.20;;;3.50;99.90;;;;;;5074143;28;20217;-80
2024/01/31 06:19:38;;;;;;;30.73;13.30;;;3.50;99.90;;;;;;5059302;28;20584;-80
2024/01/31 06:22:26;;;;;;;25.20;12.27;;;3.60;99.90;;;;;;5059602;28;20547;-81
2024/01/31 06:25:14;;;;;;;26.43;13.30;;;3.60;99.90;;;;;;5073434;28;20260;-80
2024/01/31 06:28:01;;;;;;;25.37;12.47;;;3.70;99.90;;;;;;5072860;28;20293;-80
2024/01/31 06:30:58;;;;;;;27.30;12.97;;;3.70;99.90;;;;;;5075126;28;20248;-81
2024/01/31 06:33:46;;;;;;;27.00;13.37;;;3.70;99.90;;;;;;5059041;28;20316;-80
2024/01/31 06:36:34;;;;;;;27.97;13.07;;;3.80;99.90;;;;;;5059099;28;20199;-80
2024/01/31 06:39:21;;;;;;;31.17;16.23;;;3.80;99.90;;;;;;5058357;28;20412;-80
2024/01/31 06:42:09;;;;;;;29.77;14.00;;;3.80;99.90;;;;;;5073323;28;20240;-81
2024/01/31 06:44:57;;;;;;;28.87;13.90;;;3.90;99.90;;;;;;5073032;28;20668;-80
2024/01/31 06:47:45;;;;;;;29.50;13.07;;;3.90;99.90;;;;;;5072411;28;20200;-81
2024/01/31 06:50:32;;;;;;;26.90;13.50;;;3.90;99.90;;;;;;5074601;28;20720;-79
2024/01/31 06:53:19;;;;;;;32.83;13.73;;;4.00;99.90;;;;;;5074736;28;20194;-80
2024/01/31 06:56:15;;;;;;;32.43;13.60;;;4.00;99.90;;;;;;5074653;28;20197;-79
2024/01/31 06:59:02;;;;;;;29.30;14.30;;;3.90;99.90;;;;;;5072587;28;20548;-79
2024/01/31 07:01:51;;;;;;;32.20;14.30;;;4.00;99.90;;;;;;5058584;28;20198;-80
2024/01/31 07:04:38;;;;;;;34.90;14.47;;;4.00;99.90;;;;;;5072417;28;20194;-81
2024/01/31 07:07:26;;;;;;;33.40;14.47;;;4.00;99.90;;;;;;5072529;28;20673;-82
2024/01/31 07:10:13;;;;;;;32.03;14.17;;;3.90;99.90;;;;;;5058335;28;20327;-80
2024/01/31 07:13:01;;;;;;;31.83;14.50;;;3.90;99.90;;;;;;5058192;28;20210;-80
2024/01/31 07:15:48;;;;;;;32.23;14.20;;;3.90;99.90;;;;;;5057765;28;20203;-80
2024/01/31 07:18:40;;;;;;;33.43;14.43;;;4.00;99.90;;;;;;5057628;28;20231;-80
2024/01/31 07:21:29;;;;;;;33.17;14.27;;;4.00;99.90;;;;;;5058293;28;20650;-81
2024/01/31 07:24:17;;;;;;;33.43;15.37;;;4.00;99.90;;;;;;5072870;28;20205;-79
2024/01/31 07:27:15;;;;;;;29.73;14.17;;;4.10;99.90;;;;;;5060081;28;20210;-80
2024/01/31 07:30:03;;;;;;;32.27;14.33;;;4.10;99.90;;;;;;5058468;28;20665;-76
2024/01/31 07:32:50;;;;;;;34.93;14.57;;;4.20;99.90;;;;;;5058515;28;20268;-78
2024/01/31 07:35:38;;;;;;;28.47;14.30;;;4.20;99.90;;;;;;5072382;28;20190;-78
2024/01/31 07:38:25;;;;;;;32.08;15.85;;;4.30;99.90;;;;;;5056897;28;20535;-78
2024/01/31 07:41:14;;;;;;;30.27;14.80;;;4.30;99.90;;;;;;5057614;28;20726;-79
2024/01/31 07:44:01;;;;;;;36.50;15.07;;;4.40;99.90;;;;;;5072476;28;20219;-78
2024/01/31 07:46:48;;;;;;;33.90;15.00;;;4.40;99.90;;;;;;5072668;28;20194;-77
2024/01/31 07:49:36;;;;;;;36.57;14.40;;;4.40;99.90;;;;;;5071265;28;20194;-79
2024/01/31 07:52:23;;;;;;;29.03;14.00;;;4.40;99.90;;;;;;5058316;28;20612;-77
2024/01/31 07:55:11;;;;;;;29.23;14.77;;;4.50;99.90;;;;;;5071873;28;20224;-76
2024/01/31 07:57:58;;;;;;;33.33;14.37;;;4.50;99.90;;;;;;5057511;28;20226;-78
2024/01/31 08:00:46;;;;;;;32.93;15.30;;;4.60;99.90;;;;;;5071656;28;20243;-77
2024/01/31 08:03:38;;;;;;;32.73;14.83;;;4.70;99.90;;;;;;5071165;28;20201;-79
2024/01/31 08:06:26;;;;;;;27.83;14.17;;;4.70;99.90;;;;;;5057134;28;20240;-80
2024/01/31 08:09:15;;;;;;;32.13;14.97;;;4.70;99.90;;;;;;5071701;28;20209;-79
2024/01/31 08:12:09;;;;;;;33.17;15.00;;;4.80;99.90;;;;;;5073616;28;20598;-76
2024/01/31 08:14:56;;;;;;;28.13;14.30;;;4.90;99.90;;;;;;5071177;28;20620;-78
2024/01/31 08:17:46;;;;;;;33.10;15.10;;;4.90;99.90;;;;;;5058321;28;20222;-79
2024/01/31 08:20:34;;;;;;;31.77;15.00;;;4.90;99.90;;;;;;5056838;28;20222;-79
2024/01/31 08:23:23;;;;;;;31.77;15.23;;;5.00;99.90;;;;;;5071843;28;20192;-84
2024/01/31 08:26:18;;;;;;;35.07;14.70;;;5.00;99.90;;;;;;5057899;28;20199;-81
2024/01/31 08:29:06;;;;;;;27.80;14.63;;;5.10;99.90;;;;;;5061869;28;20196;-83
2024/01/31 08:32:08;;;;;;;33.80;15.57;;;5.10;99.90;;;;;;5075630;28;20189;-82
2024/01/31 08:34:58;;;;;;;30.33;15.40;;;5.30;99.90;;;;;;5075542;28;20234;-83
2024/01/31 08:37:48;;;;;;;31.50;14.80;;;5.30;99.90;;;;;;5061904;28;20225;-83
2024/01/31 08:40:35;;;;;;;35.70;14.70;;;5.30;99.90;;;;;;5075412;28;20222;-82
2024/01/31 08:43:23;;;;;;;30.60;14.93;;;5.30;99.90;;;;;;5075482;28;20578;-83
2024/01/31 08:46:11;;;;;;;30.70;15.27;;;5.40;99.90;;;;;;5061192;28;20651;-81
2024/01/31 08:48:59;;;;;;;32.40;15.07;;;5.40;99.90;;;;;;5075247;28;20309;-82
2024/01/31 08:51:47;;;;;;;30.23;14.50;;;5.40;99.90;;;;;;5061648;28;20196;-82
2024/01/31 08:54:35;;;;;;;29.47;14.83;;;5.50;99.90;;;;;;5075372;28;20194;-82
2024/01/31 08:57:23;;;;;;;29.07;14.67;;;5.50;99.90;;;;;;5061330;28;20225;-82
2024/01/31 09:00:11;;;;;;;27.43;14.63;;;5.50;99.90;;;;;;5075022;28;20803;-82
2024/01/31 09:03:00;;;;;;;30.10;14.77;;;5.70;99.90;;;;;;5076804;28;20194;-82
2024/01/31 09:05:48;;;;;;;30.77;15.10;;;5.70;99.90;;;;;;5075485;28;20232;-81
2024/01/31 09:08:36;;;;;;;30.97;15.20;;;5.80;99.90;;;;;;5074864;28;20197;-79
2024/01/31 09:11:24;;;;;;;30.73;15.20;;;5.70;99.90;;;;;;5075331;28;20212;-81
2024/01/31 09:14:12;;;;;;;26.83;14.50;;;5.90;99.90;;;;;;5076526;28;20637;-82
2024/01/31 09:17:00;;;;;;;32.13;14.97;;;5.90;99.90;;;;;;5060556;28;20191;-82
2024/01/31 09:19:49;;;;;;;30.77;13.80;;;6.10;99.90;;;;;;5060412;28;20193;-81
2024/01/31 09:22:38;;;;;;;29.80;14.37;;;6.10;99.90;;;;;;5059814;28;20195;-80
2024/01/31 09:25:26;;;;;;;26.10;14.30;;;6.30;99.90;;;;;;5060255;28;20192;-79
2024/01/31 09:28:14;;;;;;;25.17;13.97;;;6.40;99.90;;;;;;5059818;28;20266;-83
2024/01/31 09:31:02;;;;;;;26.20;13.17;;;6.50;99.90;;;;;;5060332;28;20213;-82
2024/01/31 09:33:51;;;;;;;26.20;14.47;;;6.50;99.90;;;;;;5059557;28;20233;-80
2024/01/31 09:36:38;;;;;;;25.90;13.27;;;6.60;99.90;;;;;;5074524;28;20192;-79
2024/01/31 09:39:26;;;;;;;30.07;14.13;;;6.60;99.90;;;;;;5059556;28;20198;-76
2024/01/31 09:42:14;;;;;;;27.93;13.60;;;6.70;99.90;;;;;;5059955;28;20213;-78
2024/01/31 09:45:03;;;;;;;27.97;13.80;;;6.80;99.90;;;;;;5046392;28;20556;-81
2024/01/31 09:47:55;;;;;;;25.63;13.70;;;6.90;99.90;;;;;;5058900;28;20322;-77
2024/01/31 09:50:42;;;;;;;26.70;13.13;;;7.00;99.90;;;;;;5073580;28;20303;-78
2024/01/31 09:53:36;;;;;;;25.23;13.87;;;6.90;99.90;;;;;;5073816;28;20280;-78
2024/01/31 09:56:27;;;;;;;25.03;13.83;;;6.90;99.90;;;;;;5059796;28;20257;-80
2024/01/31 09:59:15;;;;;;;28.40;13.63;;;6.90;99.90;;;;;;5060181;28;20302;-79
2024/01/31 10:02:05;;;;;;;25.30;13.13;;;7.00;99.90;;;;;;5074630;28;20299;-80
2024/01/31 10:04:53;;;;;;;25.47;13.00;;;7.00;99.90;;;;;;5059787;28;20276;-78
2024/01/31 10:07:42;;;;;;;25.83;13.80;;;7.00;99.90;;;;;;5059846;28;20872;-81
2024/01/31 10:10:30;;;;;;;25.73;13.60;;;7.10;99.90;;;;;;5059644;28;20193;-80
2024/01/31 10:13:21;;;;;;;27.23;12.33;;;7.10;99.90;;;;;;5075315;28;20221;-83
2024/01/31 10:16:09;;;;;;;23.00;12.53;;;7.10;99.90;;;;;;5073704;28;20201;-79
2024/01/31 10:18:57;;;;;;;24.60;13.33;;;7.10;99.90;;;;;;5074024;28;20213;-78
2024/01/31 10:21:45;;;;;;;24.13;12.70;;;7.20;99.90;;;;;;5059349;28;20753;-81
2024/01/31 10:24:32;;;;;;;24.03;12.70;;;7.30;99.90;;;;;;5072872;28;20642;-79
2024/01/31 10:27:21;;;;;;;23.53;12.20;;;7.30;99.90;;;;;;5059153;28;20225;-77
2024/01/31 10:30:10;;;;;;;25.07;12.30;;;7.30;99.90;;;;;;5072788;28;20205;-79
2024/01/31 10:33:04;;;;;;;26.63;12.03;;;7.30;99.90;;;;;;5059815;28;20291;-82
2024/01/31 10:35:53;;;;;;;23.53;12.30;;;7.40;99.90;;;;;;5059584;28;20612;-82
2024/01/31 10:38:44;;;;;;;25.27;12.20;;;7.40;99.90;;;;;;5059565;28;20354;-82
2024/01/31 10:41:32;;;;;;;24.10;12.23;;;7.30;99.90;;;;;;5073110;28;20291;-82
2024/01/31 10:44:24;;;;;;;24.97;12.90;;;7.40;99.90;;;;;;5059109;28;20215;-83
2024/01/31 10:47:12;;;;;;;22.70;12.43;;;7.40;99.90;;;;;;5073033;28;20719;-83
2024/01/31 10:50:01;;;;;;;22.43;13.07;;;7.50;99.90;;;;;;5074659;28;20192;-83
2024/01/31 10:52:50;;;;;;;25.07;12.37;;;7.40;99.90;;;;;;5074862;28;20573;-82
2024/01/31 10:55:39;;;;;;;24.50;13.10;;;7.40;99.90;;;;;;5057966;28;20204;-80
2024/01/31 10:58:29;;;;;;;25.50;13.10;;;7.40;99.90;;;;;;5072282;28;20218;-83
2024/01/31 11:01:17;;;;;;;22.20;12.27;;;7.40;99.90;;;;;;5072721;28;20326;-82
2024/01/31 11:04:08;;;;;;;25.07;13.27;;;7.50;99.90;;;;;;5072053;28;20240;-83
2024/01/31 11:07:00;;;;;;;21.93;12.33;;;7.40;99.90;;;;;;5073121;28;20673;-83
2024/01/31 11:09:48;;;;;;;22.30;12.53;;;7.40;99.90;;;;;;5074730;28;20575;-83
2024/01/31 11:12:36;;;;;;;22.97;12.40;;;7.50;99.90;;;;;;5073728;28;20247;-83
2024/01/31 11:15:30;;;;;;;24.53;12.80;;;7.50;99.90;;;;;;5072159;28;20297;-82
2024/01/31 11:18:24;;;;;;;22.47;11.90;;;7.50;99.90;;;;;;5072424;28;20220;-81
2024/01/31 11:21:14;;;;;;;24.30;12.93;;;7.50;99.90;;;;;;5072016;28;20577;-80
2024/01/31 11:24:02;;;;;;;21.60;12.50;;;7.50;99.90;;;;;;5058658;28;20241;-82
2024/01/31 11:26:51;;;;;;;23.73;12.80;;;7.50;99.90;;;;;;5058791;28;20333;-82
2024/01/31 11:29:41;;;;;;;26.40;12.73;;;7.50;99.90;;;;;;5058050;28;20280;-83
2024/01/31 11:32:29;;;;;;;26.07;13.13;;;7.50;99.90;;;;;;5073586;28;20204;-83
2024/01/31 11:35:17;;;;;;;27.07;13.27;;;7.40;99.90;;;;;;5072809;28;20253;-82
2024/01/31 11:38:08;;;;;;;27.53;13.83;;;7.40;99.90;;;;;;5072026;28;20350;-81
2024/01/31 11:40:56;;;;;;;23.80;12.80;;;7.50;99.90;;;;;;5057127;28;20680;-83
2024/01/31 11:43:44;;;;;;;25.27;12.80;;;7.50;99.90;;;;;;5071998;28;20197;-85
2024/01/31 11:46:32;;;;;;;22.03;12.23;;;7.50;99.90;;;;;;5072016;28;20199;-82
2024/01/31 11:49:19;;;;;;;22.53;12.90;;;7.50;99.90;;;;;;5073134;28;20668;-84
2024/01/31 11:52:08;;;;;;;25.97;13.83;;;7.40;99.90;;;;;;5011950;28;20239;-83
2024/01/31 11:54:55;;;;;;;30.23;13.30;;;7.50;99.90;;;;;;4996502;28;20255;-84
2024/01/31 11:57:43;;;;;;;27.93;13.20;;;7.50;99.90;;;;;;5010382;28;20254;-84
2024/01/31 12:00:31;;;;;;;27.03;13.53;;;7.50;99.90;;;;;;5010065;28;20317;-83
2024/01/31 12:03:19;;;;;;;21.83;11.87;;;7.60;99.90;;;;;;5011160;28;20203;-81
2024/01/31 12:06:08;;;;;;;26.27;12.53;;;7.70;99.90;;;;;;5011033;28;20314;-84
2024/01/31 12:08:56;;;;;;;21.10;11.57;;;7.90;99.90;;;;;;5014624;28;20200;-82
2024/01/31 12:11:43;;;;;;;24.33;12.37;;;8.00;99.90;;;;;;5076447;28;20214;-82
2024/01/31 12:14:31;;;;;;;22.73;11.27;;;8.00;99.90;;;;;;5060364;28;20577;-78
2024/01/31 12:17:23;;;;;;;20.20;10.87;;;8.00;99.90;;;;;;5057067;28;20215;-78
2024/01/31 12:20:12;;;;;;;23.27;10.60;;;8.00;99.90;;;;;;5058329;28;20245;-79
2024/01/31 12:22:59;;;;;;;20.47;10.60;;;8.10;99.90;;;;;;5071588;28;20247;-81
2024/01/31 12:25:47;;;;;;;16.37;9.80;;;8.00;99.90;;;;;;5072403;28;20534;-76
2024/01/31 12:28:34;;;;;;;17.30;9.63;;;8.00;99.90;;;;;;5056787;28;20235;-78
2024/01/31 12:31:22;;;;;;;17.43;9.67;;;8.00;99.90;;;;;;5057976;28;20237;-79
2024/01/31 12:34:10;;;;;;;17.13;9.00;;;8.00;99.90;;;;;;5073414;28;20284;-78
2024/01/31 12:36:57;;;;;;;19.00;9.30;;;7.90;99.90;;;;;;5071976;28;20208;-79
2024/01/31 12:39:45;;;;;;;18.60;9.33;;;8.00;99.90;;;;;;5057175;28;20707;-78
2024/01/31 12:42:32;;;;;;;18.43;9.17;;;7.90;99.90;;;;;;5071386;28;20213;-77
2024/01/31 12:45:20;;;;;;;16.03;8.53;;;7.90;99.90;;;;;;5057909;28;20278;-77
2024/01/31 12:48:08;;;;;;;18.47;8.73;;;8.00;99.90;;;;;;5056622;28;20725;-74
2024/01/31 12:50:58;;;;;;;13.77;7.83;;;8.00;99.90;;;;;;5073246;28;20772;-75
2024/01/31 12:53:46;;;;;;;15.70;8.10;;;8.00;99.90;;;;;;5056691;28;20644;-75
2024/01/31 12:56:33;;;;;;;15.13;8.47;;;8.00;99.90;;;;;;5072382;28;20755;-75
2024/01/31 12:59:23;;;;;;;15.30;7.50;;;8.10;99.90;;;;;;5071753;28;20221;-75
2024/01/31 13:02:11;;;;;;;15.37;7.50;;;8.10;99.90;;;;;;5071318;28;20198;-76
2024/01/31 13:04:59;;;;;;;16.60;7.50;;;8.10;99.90;;;;;;5070679;28;20233;-75
2024/01/31 13:07:47;;;;;;;13.17;7.13;;;8.00;99.90;;;;;;5071347;28;20317;-74
2024/01/31 13:10:35;;;;;;;12.33;6.87;;;8.00;99.90;;;;;;5070542;28;20193;-76
2024/01/31 13:13:22;;;;;;;15.13;7.00;;;8.00;99.90;;;;;;5058399;28;20217;-74
2024/01/31 13:16:10;;;;;;;15.77;7.10;;;8.00;99.90;;;;;;5074872;28;20682;-75
2024/01/31 13:18:58;;;;;;;13.83;7.43;;;8.00;99.90;;;;;;5061145;28;20335;-75
2024/01/31 13:21:49;;;;;;;15.93;7.53;;;7.80;99.90;;;;;;5074661;28;20204;-74
2024/01/31 13:24:37;;;;;;;16.03;7.80;;;7.80;99.90;;;;;;5060884;28;20197;-75
2024/01/31 13:27:25;;;;;;;14.43;7.47;;;7.70;99.90;;;;;;5075963;28;20216;-74
2024/01/31 13:30:13;;;;;;;13.00;7.57;;;7.70;99.90;;;;;;5074551;28;20192;-75
2024/01/31 13:33:00;;;;;;;15.33;7.57;;;7.60;99.90;;;;;;5075684;28;20196;-75
2024/01/31 13:35:48;;;;;;;13.03;7.07;;;7.60;99.90;;;;;;5060749;28;20216;-75
2024/01/31 13:38:36;;;;;;;13.27;6.97;;;7.60;99.90;;;;;;5060172;28;20581;-74
2024/01/31 13:41:23;;;;;;;12.50;7.13;;;7.50;99.90;;;;;;5074972;28;20245;-75
2024/01/31 13:44:11;;;;;;;15.03;7.70;;;7.50;99.90;;;;;;5074755;28;20241;-74
2024/01/31 13:46:59;;;;;;;14.17;7.87;;;7.50;99.90;;;;;;5073624;28;20194;-75
2024/01/31 13:49:46;;;;;;;13.27;7.63;;;7.40;99.90;;;;;;5074790;28;20207;-76
2024/01/31 13:52:34;;;;;;;14.03;7.67;;;7.40;99.90;;;;;;5075442;28;20205;-77
2024/01/31 13:55:22;;;;;;;15.17;8.23;;;7.30;99.90;;;;;;5060551;28;20188;-75
2024/01/31 13:58:09;;;;;;;16.53;9.13;;;7.40;99.90;;;;;;5073964;28;20213;-76
2024/01/31 14:00:56;;;;;;;17.70;9.90;;;7.40;99.90;;;;;;5073976;28;20193;-76
2024/01/31 14:03:44;;;;;;;18.37;9.63;;;7.30;99.90;;;;;;5074224;28;20196;-80
2024/01/31 14:06:32;;;;;;;20.13;10.77;;;7.30;99.90;;;;;;5059443;28;20231;-81
2024/01/31 14:09:21;;;;;;;18.87;10.43;;;7.20;99.90;;;;;;5074398;28;20229;-82
2024/01/31 14:12:08;;;;;;;20.50;11.37;;;7.20;99.90;;;;;;5073449;28;20214;-82
2024/01/31 14:14:59;;;;;;;22.20;11.33;;;7.10;99.90;;;;;;5073805;28;20662;-82
2024/01/31 14:17:47;;;;;;;22.27;12.60;;;6.90;99.90;;;;;;5073269;28;20197;-80
2024/01/31 14:20:34;;;;;;;24.87;12.77;;;6.80;99.90;;;;;;5073845;28;20220;-81
2024/01/31 14:23:22;;;;;;;21.00;12.50;;;6.80;99.90;;;;;;5075294;28;20235;-80
2024/01/31 14:26:29;;;;;;;22.83;13.07;;;6.80;99.90;;;;;;5073465;28;20211;-81